createdAt,value
2023-04-02T00:00:21.351Z,986.63
2023-04-02T00:01:21.289Z,986.62
2023-04-02T00:02:21.350Z,986.67
2023-04-02T00:03:21.311Z,986.66
2023-04-02T00:04:21.259Z,986.66
2023-04-02T00:05:21.245Z,986.66
2023-04-02T00:06:21.226Z,986.70
2023-04-02T00:07:21.217Z,986.76
2023-04-02T00:08:21.202Z,986.80
2023-04-02T00:09:21.189Z,986.70
2023-04-02T00:10:21.176Z,986.75
2023-04-02T00:11:21.166Z,986.73
2023-04-02T00:12:21.149Z,986.78
2023-04-02T00:13:21.149Z,986.78
2023-04-02T00:14:21.132Z,986.87
2023-04-02T00:15:21.116Z,986.91
2023-04-02T00:16:21.176Z,986.88
2023-04-02T00:17:21.093Z,986.92
2023-04-02T00:18:21.116Z,986.86
2023-04-02T00:19:21.069Z,986.96
2023-04-02T00:20:21.061Z,986.92
2023-04-02T00:21:21.050Z,986.92
2023-04-02T00:23:21.017Z,986.95
2023-04-02T00:24:21.015Z,986.97
2023-04-02T00:25:20.990Z,986.94
2023-04-02T00:26:20.982Z,986.96
2023-04-02T00:27:20.968Z,987.00
2023-04-02T00:28:20.953Z,987.03
2023-04-02T00:29:20.951Z,986.99
2023-04-02T00:30:20.941Z,987.03
2023-04-02T00:31:20.918Z,987.02
2023-04-02T00:32:21.024Z,987.04
2023-04-02T00:33:20.900Z,987.02
2023-04-02T00:34:20.882Z,987.00
2023-04-02T00:35:20.866Z,987.01
2023-04-02T00:36:20.899Z,987.03
2023-04-02T00:37:20.846Z,987.06
2023-04-02T00:38:20.839Z,987.09
2023-04-02T00:39:20.822Z,987.08
2023-04-02T00:40:20.820Z,987.05
2023-04-02T00:41:20.788Z,987.04
2023-04-02T00:42:20.785Z,987.07
2023-04-02T00:43:20.764Z,987.07
2023-04-02T00:44:20.760Z,987.08
2023-04-02T00:45:20.741Z,987.12
2023-04-02T00:46:20.782Z,987.07
2023-04-02T00:47:20.715Z,987.18
2023-04-02T00:48:20.741Z,987.14
2023-04-02T00:49:20.702Z,987.14
2023-04-02T00:50:20.680Z,987.16
2023-04-02T00:51:20.711Z,987.21
2023-04-02T00:52:20.652Z,987.16
2023-04-02T00:53:20.638Z,987.19
2023-04-02T00:54:20.629Z,987.21
2023-04-02T00:55:20.615Z,987.20
2023-04-02T00:56:20.605Z,987.24
2023-04-02T00:57:20.648Z,987.22
2023-04-02T00:58:20.575Z,987.25
2023-04-02T00:59:20.563Z,987.26
2023-04-02T01:00:20.564Z,987.25
2023-04-02T01:01:20.559Z,987.29
2023-04-02T01:02:20.553Z,987.29
2023-04-02T01:03:20.643Z,987.25
2023-04-02T01:04:20.523Z,987.26
2023-04-02T01:05:20.482Z,987.30
2023-04-02T01:06:20.471Z,987.26
2023-04-02T01:07:20.458Z,987.28
2023-04-02T01:08:20.450Z,987.29
2023-04-02T01:09:20.435Z,987.35
2023-04-02T01:10:20.418Z,987.34
2023-04-02T01:11:20.412Z,987.38
2023-04-02T01:12:20.399Z,987.35
2023-04-02T01:13:20.383Z,987.36
2023-04-02T01:14:20.368Z,987.38
2023-04-02T01:15:20.360Z,987.42
2023-04-02T01:16:20.417Z,987.36
2023-04-02T01:17:20.331Z,987.42
2023-04-02T01:18:20.326Z,987.42
2023-04-02T01:19:20.304Z,987.46
2023-04-02T01:20:20.324Z,987.40
2023-04-02T01:21:20.277Z,987.42
2023-04-02T01:22:20.267Z,987.43
2023-04-02T01:23:20.254Z,987.49
2023-04-02T01:24:20.245Z,987.46
2023-04-02T01:25:20.229Z,987.48
2023-04-02T01:26:20.217Z,987.43
2023-04-02T01:27:20.202Z,987.49
2023-04-02T01:28:20.204Z,987.50
2023-04-02T01:29:20.317Z,987.55
2023-04-02T01:30:20.185Z,987.48
2023-04-02T01:31:20.169Z,987.55
2023-04-02T01:32:20.145Z,987.50
2023-04-02T01:33:20.129Z,987.47
2023-04-02T01:34:20.118Z,987.63
2023-04-02T01:35:20.107Z,987.54
2023-04-02T01:36:20.216Z,987.65
2023-04-02T01:37:20.077Z,987.64
2023-04-02T01:38:20.069Z,987.59
2023-04-02T01:39:20.175Z,987.64
2023-04-02T01:40:20.049Z,987.66
2023-04-02T01:41:20.027Z,987.63
2023-04-02T01:42:20.024Z,987.63
2023-04-02T01:43:20.002Z,987.70
2023-04-02T01:44:20.011Z,987.70
2023-04-02T01:45:19.988Z,987.69
2023-04-02T01:46:20.030Z,987.71
2023-04-02T01:47:19.949Z,987.73
2023-04-02T01:48:20.025Z,987.73
2023-04-02T01:49:19.924Z,987.74
2023-04-02T01:50:19.962Z,987.75
2023-04-02T01:51:19.904Z,987.75
2023-04-02T01:52:19.919Z,987.76
2023-04-02T01:53:19.881Z,987.82
2023-04-02T01:54:19.869Z,987.80
2023-04-02T01:55:19.858Z,987.81
2023-04-02T01:56:19.840Z,987.86
2023-04-02T01:57:19.877Z,987.86
2023-04-02T01:58:19.806Z,987.88
2023-04-02T01:59:19.794Z,987.91
2023-04-02T02:00:19.789Z,987.92
2023-04-02T02:01:19.977Z,987.92
2023-04-02T02:02:19.805Z,987.89
2023-04-02T02:03:19.778Z,987.95
2023-04-02T02:04:19.773Z,987.99
2023-04-02T02:05:19.720Z,987.92
2023-04-02T02:06:19.725Z,987.92
2023-04-02T02:07:19.698Z,987.95
2023-04-02T02:08:19.705Z,987.92
2023-04-02T02:09:19.675Z,987.95
2023-04-02T02:10:19.655Z,987.97
2023-04-02T02:11:19.645Z,988.02
2023-04-02T02:12:19.630Z,987.98
2023-04-02T02:13:19.618Z,988.00
2023-04-02T02:14:19.606Z,988.02
2023-04-02T02:15:19.592Z,988.02
2023-04-02T02:16:19.604Z,988.02
2023-04-02T02:17:19.607Z,988.06
2023-04-02T02:18:19.567Z,988.03
2023-04-02T02:19:19.543Z,988.06
2023-04-02T02:20:19.540Z,988.06
2023-04-02T02:21:19.531Z,988.12
2023-04-02T02:22:19.512Z,988.15
2023-04-02T02:23:19.496Z,988.13
2023-04-02T02:24:19.518Z,988.12
2023-04-02T02:25:19.476Z,988.15
2023-04-02T02:26:19.462Z,988.17
2023-04-02T02:27:19.443Z,988.18
2023-04-02T02:28:19.432Z,988.18
2023-04-02T02:29:19.422Z,988.24
2023-04-02T02:30:19.408Z,988.24
2023-04-02T02:31:19.469Z,988.20
2023-04-02T02:32:19.385Z,988.22
2023-04-02T02:33:19.366Z,988.25
2023-04-02T02:34:19.360Z,988.25
2023-04-02T02:35:19.354Z,988.23
2023-04-02T02:36:19.351Z,988.29
2023-04-02T02:37:19.326Z,988.35
2023-04-02T02:38:19.306Z,988.42
2023-04-02T02:39:19.291Z,988.39
2023-04-02T02:40:19.304Z,988.43
2023-04-02T02:41:19.273Z,988.42
2023-04-02T02:42:19.259Z,988.47
2023-04-02T02:43:19.250Z,988.46
2023-04-02T02:44:19.230Z,988.43
2023-04-02T02:45:19.216Z,988.54
2023-04-02T02:46:19.212Z,988.48
2023-04-02T02:47:19.201Z,988.54
2023-04-02T02:48:19.184Z,988.54
2023-04-02T02:49:19.184Z,988.51
2023-04-02T02:50:19.159Z,988.54
2023-04-02T02:51:19.140Z,988.57
2023-04-02T02:52:19.132Z,988.59
2023-04-02T02:53:19.115Z,988.63
2023-04-02T02:54:19.103Z,988.60
2023-04-02T02:55:19.087Z,988.61
2023-04-02T02:56:19.114Z,988.64
2023-04-02T02:57:19.119Z,988.63
2023-04-02T02:58:19.058Z,988.67
2023-04-02T02:59:19.037Z,988.65
2023-04-02T03:00:19.054Z,988.69
2023-04-02T03:01:19.036Z,988.75
2023-04-02T03:02:19.041Z,988.70
2023-04-02T03:03:19.073Z,988.72
2023-04-02T03:04:19.082Z,988.77
2023-04-02T03:05:18.969Z,988.75
2023-04-02T03:06:18.949Z,988.75
2023-04-02T03:07:18.950Z,988.78
2023-04-02T03:08:18.953Z,988.83
2023-04-02T03:09:18.913Z,988.81
2023-04-02T03:10:18.908Z,988.81
2023-04-02T03:11:18.886Z,988.82
2023-04-02T03:12:18.896Z,988.82
2023-04-02T03:13:18.869Z,988.87
2023-04-02T03:14:18.866Z,988.85
2023-04-02T03:15:18.844Z,988.88
2023-04-02T03:16:18.845Z,988.88
2023-04-02T03:17:18.831Z,988.91
2023-04-02T03:18:18.802Z,988.93
2023-04-02T03:19:18.783Z,988.93
2023-04-02T03:20:18.778Z,988.97
2023-04-02T03:21:18.763Z,989.00
2023-04-02T03:22:18.753Z,988.99
2023-04-02T03:23:20.432Z,988.99
2023-04-02T03:24:18.736Z,989.06
2023-04-02T03:25:18.706Z,989.02
2023-04-02T03:26:18.708Z,989.06
2023-04-02T03:27:18.696Z,989.05
2023-04-02T03:28:18.700Z,989.08
2023-04-02T03:29:18.663Z,989.08
2023-04-02T03:30:18.654Z,989.10
2023-04-02T03:31:18.678Z,989.11
2023-04-02T03:32:18.624Z,989.13
2023-04-02T03:33:18.622Z,989.14
2023-04-02T03:34:18.615Z,989.14
2023-04-02T03:35:18.587Z,989.17
2023-04-02T03:36:18.624Z,989.10
2023-04-02T03:37:18.561Z,989.19
2023-04-02T03:38:18.549Z,989.19
2023-04-02T03:39:18.549Z,989.15
2023-04-02T03:40:18.533Z,989.26
2023-04-02T03:41:18.521Z,989.20
2023-04-02T03:42:18.499Z,989.27
2023-04-02T03:43:18.496Z,989.30
2023-04-02T03:44:18.501Z,989.28
2023-04-02T03:45:18.462Z,989.26
2023-04-02T03:46:18.516Z,989.29
2023-04-02T03:47:18.438Z,989.31
2023-04-02T03:48:18.425Z,989.32
2023-04-02T03:49:18.423Z,989.37
2023-04-02T03:50:18.397Z,989.37
2023-04-02T03:51:18.397Z,989.37
2023-04-02T03:52:18.374Z,989.40
2023-04-02T03:53:18.357Z,989.40
2023-04-02T03:54:18.354Z,989.38
2023-04-02T03:55:18.335Z,989.37
2023-04-02T03:56:18.323Z,989.40
2023-04-02T03:57:18.388Z,989.47
2023-04-02T03:58:18.296Z,989.46
2023-04-02T03:59:18.287Z,989.50
2023-04-02T04:00:18.297Z,989.51
2023-04-02T04:01:18.257Z,989.52
2023-04-02T04:02:18.299Z,989.51
2023-04-02T04:03:18.241Z,989.52
2023-04-02T04:04:18.283Z,989.54
2023-04-02T04:05:18.215Z,989.58
2023-04-02T04:06:20.127Z,989.58
2023-04-02T04:07:18.180Z,989.58
2023-04-02T04:08:18.171Z,989.58
2023-04-02T04:09:18.159Z,989.63
2023-04-02T04:10:18.166Z,989.64
2023-04-02T04:11:18.156Z,989.63
2023-04-02T04:12:18.133Z,989.69
2023-04-02T04:13:18.122Z,989.68
2023-04-02T04:14:18.106Z,989.74
2023-04-02T04:15:18.083Z,989.78
2023-04-02T04:16:18.124Z,989.76
2023-04-02T04:17:18.055Z,989.81
2023-04-02T04:18:18.044Z,989.78
2023-04-02T04:19:18.031Z,989.80
2023-04-02T04:20:18.019Z,989.87
2023-04-02T04:21:18.005Z,989.89
2023-04-02T04:22:17.992Z,989.89
2023-04-02T04:24:17.966Z,989.94
2023-04-02T04:25:17.968Z,989.95
2023-04-02T04:26:17.942Z,990.00
2023-04-02T04:27:17.928Z,990.04
2023-04-02T04:28:17.916Z,990.02
2023-04-02T04:29:17.904Z,990.05
2023-04-02T04:30:17.891Z,990.04
2023-04-02T04:31:17.879Z,990.09
2023-04-02T04:32:18.073Z,990.12
2023-04-02T04:33:17.853Z,990.10
2023-04-02T04:34:17.856Z,990.13
2023-04-02T04:35:17.833Z,990.12
2023-04-02T04:36:17.868Z,990.18
2023-04-02T04:37:17.802Z,990.21
2023-04-02T04:38:17.794Z,990.20
2023-04-02T04:39:17.776Z,990.20
2023-04-02T04:40:17.770Z,990.27
2023-04-02T04:41:17.756Z,990.23
2023-04-02T04:42:17.744Z,990.24
2023-04-02T04:43:17.726Z,990.30
2023-04-02T04:44:17.718Z,990.29
2023-04-02T04:45:17.703Z,990.28
2023-04-02T04:46:17.705Z,990.35
2023-04-02T04:47:17.677Z,990.40
2023-04-02T04:48:17.692Z,990.46
2023-04-02T04:49:17.652Z,990.45
2023-04-02T04:50:17.642Z,990.40
2023-04-02T04:51:17.625Z,990.51
2023-04-02T04:52:17.616Z,990.43
2023-04-02T04:53:17.614Z,990.49
2023-04-02T04:54:17.588Z,990.52
2023-04-02T04:55:17.582Z,990.53
2023-04-02T04:56:19.665Z,990.59
2023-04-02T04:57:17.607Z,990.54
2023-04-02T04:58:17.542Z,990.59
2023-04-02T04:59:17.531Z,990.57
2023-04-02T05:00:17.510Z,990.63
2023-04-02T05:01:17.545Z,990.59
2023-04-02T05:02:17.535Z,990.69
2023-04-02T05:03:17.476Z,990.69
2023-04-02T05:04:17.514Z,990.74
2023-04-02T05:05:17.454Z,990.75
2023-04-02T05:06:17.444Z,990.80
2023-04-02T05:07:17.425Z,990.79
2023-04-02T05:08:17.426Z,990.81
2023-04-02T05:09:17.406Z,990.82
2023-04-02T05:10:17.385Z,990.81
2023-04-02T05:11:17.382Z,990.86
2023-04-02T05:12:17.361Z,990.85
2023-04-02T05:13:17.358Z,990.90
2023-04-02T05:14:17.331Z,990.88
2023-04-02T05:15:17.324Z,990.90
2023-04-02T05:16:17.396Z,990.96
2023-04-02T05:17:17.298Z,990.93
2023-04-02T05:18:17.279Z,991.02
2023-04-02T05:19:17.268Z,990.99
2023-04-02T05:20:17.298Z,990.99
2023-04-02T05:21:17.242Z,990.99
2023-04-02T05:22:17.228Z,991.08
2023-04-02T05:23:17.219Z,991.15
2023-04-02T05:24:17.202Z,991.12
2023-04-02T05:25:17.191Z,991.12
2023-04-02T05:26:17.176Z,991.10
2023-04-02T05:27:17.166Z,991.17
2023-04-02T05:28:17.152Z,991.15
2023-04-02T05:29:17.143Z,991.23
2023-04-02T05:30:17.828Z,991.17
2023-04-02T05:31:17.130Z,991.20
2023-04-02T05:32:17.103Z,991.24
2023-04-02T05:33:17.088Z,991.28
2023-04-02T05:34:17.075Z,991.28
2023-04-02T05:35:17.063Z,991.30
2023-04-02T05:36:17.128Z,991.36
2023-04-02T05:37:17.037Z,991.27
2023-04-02T05:38:17.023Z,991.32
2023-04-02T05:39:17.011Z,991.32
2023-04-02T05:40:16.996Z,991.37
2023-04-02T05:41:16.988Z,991.44
2023-04-02T05:42:16.973Z,991.41
2023-04-02T05:43:16.960Z,991.43
2023-04-02T05:44:16.947Z,991.48
2023-04-02T05:45:16.936Z,991.44
2023-04-02T05:46:16.959Z,991.51
2023-04-02T05:47:16.909Z,991.53
2023-04-02T05:48:16.895Z,991.57
2023-04-02T05:49:16.891Z,991.60
2023-04-02T05:50:16.869Z,991.62
2023-04-02T05:51:16.874Z,991.60
2023-04-02T05:52:16.868Z,991.65
2023-04-02T05:53:16.836Z,991.64
2023-04-02T05:54:16.817Z,991.61
2023-04-02T05:55:16.823Z,991.57
2023-04-02T05:56:16.796Z,991.78
2023-04-02T05:57:16.835Z,991.75
2023-04-02T05:58:34.503Z,991.73
2023-04-02T05:59:16.782Z,991.81
2023-04-02T06:00:16.742Z,991.83
2023-04-02T06:01:16.728Z,991.87
2023-04-02T06:02:16.736Z,991.84
2023-04-02T06:03:16.766Z,991.90
2023-04-02T06:04:16.872Z,991.86
2023-04-02T06:05:16.682Z,991.90
2023-04-02T06:06:16.659Z,991.89
2023-04-02T06:07:16.661Z,991.97
2023-04-02T06:08:16.663Z,992.01
2023-04-02T06:09:16.624Z,991.99
2023-04-02T06:10:16.609Z,992.07
2023-04-02T06:11:16.598Z,992.06
2023-04-02T06:12:16.584Z,992.08
2023-04-02T06:13:16.570Z,992.09
2023-04-02T06:14:16.560Z,992.10
2023-04-02T06:15:16.543Z,992.17
2023-04-02T06:16:16.758Z,992.20
2023-04-02T06:17:16.518Z,992.23
2023-04-02T06:18:16.505Z,992.28
2023-04-02T06:19:16.494Z,992.21
2023-04-02T06:20:16.494Z,992.22
2023-04-02T06:21:16.470Z,992.34
2023-04-02T06:22:16.457Z,992.31
2023-04-02T06:23:16.439Z,992.26
2023-04-02T06:24:16.452Z,992.34
2023-04-02T06:25:16.414Z,992.37
2023-04-02T06:26:16.400Z,992.41
2023-04-02T06:27:16.394Z,992.44
2023-04-02T06:28:16.374Z,992.43
2023-04-02T06:29:16.361Z,992.46
2023-04-02T06:30:16.351Z,992.45
2023-04-02T06:31:16.339Z,992.50
2023-04-02T06:32:16.326Z,992.56
2023-04-02T06:33:16.324Z,992.64
2023-04-02T06:34:16.297Z,992.63
2023-04-02T06:35:16.298Z,992.61
2023-04-02T06:36:16.289Z,992.60
2023-04-02T06:37:16.284Z,992.69
2023-04-02T06:38:16.269Z,992.68
2023-04-02T06:39:16.240Z,992.75
2023-04-02T06:40:16.247Z,992.71
2023-04-02T06:41:16.214Z,992.73
2023-04-02T06:42:16.195Z,992.75
2023-04-02T06:43:16.186Z,992.80
2023-04-02T06:44:16.183Z,992.81
2023-04-02T06:45:16.163Z,992.88
2023-04-02T06:46:16.236Z,992.87
2023-04-02T06:47:16.136Z,992.84
2023-04-02T06:48:16.122Z,992.87
2023-04-02T06:49:16.109Z,992.92
2023-04-02T06:50:16.109Z,992.99
2023-04-02T06:51:16.084Z,992.96
2023-04-02T06:52:16.069Z,993.02
2023-04-02T06:53:16.058Z,993.00
2023-04-02T06:54:16.121Z,993.03
2023-04-02T06:55:16.054Z,993.10
2023-04-02T06:56:16.042Z,993.12
2023-04-02T06:57:16.028Z,993.11
2023-04-02T06:58:15.993Z,993.14
2023-04-02T06:59:16.007Z,993.23
2023-04-02T07:00:15.974Z,993.19
2023-04-02T07:01:16.005Z,993.22
2023-04-02T07:02:15.946Z,993.27
2023-04-02T07:03:15.931Z,993.25
2023-04-02T07:04:15.985Z,993.38
2023-04-02T07:05:15.916Z,993.35
2023-04-02T07:06:15.887Z,993.37
2023-04-02T07:07:15.882Z,993.37
2023-04-02T07:08:15.863Z,993.41
2023-04-02T07:09:15.850Z,993.39
2023-04-02T07:10:15.833Z,993.42
2023-04-02T07:11:15.821Z,993.54
2023-04-02T07:12:15.833Z,993.51
2023-04-02T07:13:15.793Z,993.49
2023-04-02T07:14:15.779Z,993.52
2023-04-02T07:15:15.769Z,993.59
2023-04-02T07:16:15.808Z,993.63
2023-04-02T07:17:15.744Z,993.64
2023-04-02T07:18:15.726Z,993.66
2023-04-02T07:19:15.713Z,993.66
2023-04-02T07:20:15.699Z,993.71
2023-04-02T07:21:15.707Z,993.72
2023-04-02T07:22:15.673Z,993.75
2023-04-02T07:23:17.029Z,993.77
2023-04-02T07:24:15.652Z,993.81
2023-04-02T07:25:15.637Z,993.84
2023-04-02T07:26:15.620Z,993.84
2023-04-02T07:27:15.617Z,993.85
2023-04-02T07:28:15.620Z,993.89
2023-04-02T07:29:15.585Z,993.95
2023-04-02T07:30:15.577Z,993.95
2023-04-02T07:31:15.584Z,994.00
2023-04-02T07:32:15.543Z,994.05
2023-04-02T07:33:15.531Z,994.05
2023-04-02T07:34:15.519Z,994.07
2023-04-02T07:35:15.517Z,994.06
2023-04-02T07:36:15.541Z,994.07
2023-04-02T07:37:15.482Z,994.11
2023-04-02T07:38:15.498Z,994.18
2023-04-02T07:39:15.458Z,994.22
2023-04-02T07:40:15.442Z,994.20
2023-04-02T07:41:15.430Z,994.14
2023-04-02T07:42:15.416Z,994.26
2023-04-02T07:43:15.404Z,994.23
2023-04-02T07:44:15.411Z,994.25
2023-04-02T07:45:15.377Z,994.29
2023-04-02T07:46:15.411Z,994.29
2023-04-02T07:47:15.351Z,994.35
2023-04-02T07:48:15.336Z,994.38
2023-04-02T07:49:15.327Z,994.42
2023-04-02T07:50:15.317Z,994.30
2023-04-02T07:51:15.302Z,994.49
2023-04-02T07:52:15.283Z,994.39
2023-04-02T07:53:15.275Z,994.48
2023-04-02T07:54:15.264Z,994.53
2023-04-02T07:55:15.253Z,994.53
2023-04-02T07:56:15.234Z,994.56
2023-04-02T07:57:15.353Z,994.54
2023-04-02T07:58:15.212Z,994.61
2023-04-02T07:59:15.197Z,994.63
2023-04-02T08:00:15.210Z,994.68
2023-04-02T08:01:15.174Z,994.72
2023-04-02T08:02:15.193Z,994.72
2023-04-02T08:03:15.226Z,994.78
2023-04-02T08:04:15.201Z,994.77
2023-04-02T08:05:15.115Z,994.79
2023-04-02T08:06:15.105Z,994.86
2023-04-02T08:07:15.097Z,994.82
2023-04-02T08:08:15.076Z,994.85
2023-04-02T08:09:15.070Z,994.85
2023-04-02T08:10:15.054Z,994.95
2023-04-02T08:11:15.080Z,994.96
2023-04-02T08:12:15.029Z,994.98
2023-04-02T08:13:15.013Z,994.92
2023-04-02T08:14:15.022Z,995.00
2023-04-02T08:15:14.991Z,995.08
2023-04-02T08:16:15.025Z,995.01
2023-04-02T08:17:14.970Z,995.04
2023-04-02T08:18:14.951Z,995.06
2023-04-02T08:19:14.941Z,995.10
2023-04-02T08:20:14.926Z,995.02
2023-04-02T08:21:16.461Z,995.07
2023-04-02T08:22:14.901Z,995.10
2023-04-02T08:23:14.888Z,995.14
2023-04-02T08:25:14.870Z,995.22
2023-04-02T08:26:14.848Z,995.23
2023-04-02T08:27:14.855Z,995.26
2023-04-02T08:28:14.831Z,995.28
2023-04-02T08:29:14.817Z,995.31
2023-04-02T08:30:14.806Z,995.23
2023-04-02T08:31:14.858Z,995.30
2023-04-02T08:32:14.801Z,995.32
2023-04-02T08:33:14.768Z,995.31
2023-04-02T08:34:14.746Z,995.39
2023-04-02T08:35:14.761Z,995.41
2023-04-02T08:36:14.749Z,995.41
2023-04-02T08:37:14.719Z,995.38
2023-04-02T08:38:14.699Z,995.48
2023-04-02T08:39:14.705Z,995.52
2023-04-02T08:40:14.669Z,995.41
2023-04-02T08:41:14.656Z,995.49
2023-04-02T08:42:14.650Z,995.53
2023-04-02T08:43:14.632Z,995.52
2023-04-02T08:44:14.617Z,995.59
2023-04-02T08:46:16.638Z,995.70
2023-04-02T08:47:14.578Z,995.74
2023-04-02T08:48:14.591Z,995.69
2023-04-02T08:49:14.558Z,995.68
2023-04-02T08:50:14.537Z,995.79
2023-04-02T08:51:14.524Z,995.82
2023-04-02T08:52:14.514Z,995.81
2023-04-02T08:53:14.501Z,995.86
2023-04-02T08:54:14.483Z,995.77
2023-04-02T08:55:14.473Z,995.87
2023-04-02T08:56:14.457Z,995.83
2023-04-02T08:57:14.462Z,995.92
2023-04-02T08:58:14.434Z,995.90
2023-04-02T08:59:14.420Z,995.98
2023-04-02T09:00:14.404Z,995.95
2023-04-02T09:01:14.406Z,995.96
2023-04-02T09:02:14.380Z,995.99
2023-04-02T09:03:14.377Z,996.02
2023-04-02T09:04:14.416Z,996.02
2023-04-02T09:05:14.342Z,996.09
2023-04-02T09:06:16.059Z,996.08
2023-04-02T09:07:14.339Z,996.05
2023-04-02T09:08:14.303Z,996.14
2023-04-02T09:09:14.298Z,996.12
2023-04-02T09:10:14.277Z,996.23
2023-04-02T09:11:14.263Z,996.26
2023-04-02T09:12:14.251Z,996.27
2023-04-02T09:13:14.249Z,996.33
2023-04-02T09:14:14.243Z,996.24
2023-04-02T09:15:14.211Z,996.35
2023-04-02T09:16:14.287Z,996.27
2023-04-02T09:17:14.185Z,996.31
2023-04-02T09:18:14.214Z,996.36
2023-04-02T09:19:14.176Z,996.34
2023-04-02T09:20:14.193Z,996.37
2023-04-02T09:21:14.135Z,996.40
2023-04-02T09:22:14.128Z,996.42
2023-04-02T09:23:14.111Z,996.45
2023-04-02T09:24:14.108Z,996.54
2023-04-02T09:25:14.089Z,996.53
2023-04-02T09:26:14.080Z,996.56
2023-04-02T09:27:14.061Z,996.59
2023-04-02T09:28:14.056Z,996.62
2023-04-02T09:29:14.047Z,996.70
2023-04-02T09:30:14.026Z,996.65
2023-04-02T09:31:14.039Z,996.66
2023-04-02T09:32:13.996Z,996.68
2023-04-02T09:33:13.999Z,996.79
2023-04-02T09:34:13.974Z,996.78
2023-04-02T09:35:24.750Z,996.79
2023-04-02T09:36:15.687Z,996.81
2023-04-02T09:37:13.950Z,996.90
2023-04-02T09:38:13.930Z,996.85
2023-04-02T09:39:13.913Z,996.88
2023-04-02T09:40:13.898Z,996.84
2023-04-02T09:41:13.884Z,996.87
2023-04-02T09:42:13.873Z,996.92
2023-04-02T09:43:13.854Z,996.91
2023-04-02T09:44:13.843Z,996.95
2023-04-02T09:45:13.835Z,997.04
2023-04-02T09:46:13.981Z,996.96
2023-04-02T09:47:13.802Z,996.99
2023-04-02T09:48:13.810Z,997.05
2023-04-02T09:49:13.787Z,997.03
2023-04-02T09:50:13.765Z,997.03
2023-04-02T09:51:13.756Z,997.05
2023-04-02T09:52:13.766Z,997.07
2023-04-02T09:53:13.724Z,997.04
2023-04-02T09:54:13.724Z,997.11
2023-04-02T09:55:13.698Z,997.08
2023-04-02T09:56:13.688Z,997.09
2023-04-02T09:57:13.695Z,997.10
2023-04-02T09:58:13.659Z,997.12
2023-04-02T09:59:13.664Z,997.10
2023-04-02T10:00:25.339Z,997.16
2023-04-02T10:01:15.647Z,997.10
2023-04-02T10:02:13.610Z,997.14
2023-04-02T10:03:13.594Z,997.17
2023-04-02T10:04:13.611Z,997.20
2023-04-02T10:05:14.538Z,997.25
2023-04-02T10:06:13.571Z,997.24
2023-04-02T10:07:13.546Z,997.32
2023-04-02T10:08:13.553Z,997.28
2023-04-02T10:09:13.518Z,997.25
2023-04-02T10:10:13.533Z,997.34
2023-04-02T10:11:13.532Z,997.29
2023-04-02T10:12:13.486Z,997.31
2023-04-02T10:13:13.470Z,997.33
2023-04-02T10:14:13.454Z,997.32
2023-04-02T10:15:13.445Z,997.42
2023-04-02T10:16:13.495Z,997.46
2023-04-02T10:17:13.583Z,997.41
2023-04-02T10:18:13.407Z,997.50
2023-04-02T10:19:13.389Z,997.54
2023-04-02T10:20:13.419Z,997.50
2023-04-02T10:21:13.375Z,997.49
2023-04-02T10:22:13.382Z,997.54
2023-04-02T10:23:13.341Z,997.59
2023-04-02T10:24:13.351Z,997.57
2023-04-02T10:25:13.314Z,997.57
2023-04-02T10:26:13.304Z,997.64
2023-04-02T10:27:13.290Z,997.70
2023-04-02T10:28:13.280Z,997.70
2023-04-02T10:29:13.272Z,997.71
2023-04-02T10:30:13.343Z,997.71
2023-04-02T10:31:13.365Z,997.67
2023-04-02T10:32:13.308Z,997.78
2023-04-02T10:33:13.218Z,997.78
2023-04-02T10:34:13.210Z,997.77
2023-04-02T10:35:13.197Z,997.77
2023-04-02T10:36:13.189Z,997.88
2023-04-02T10:37:13.171Z,997.90
2023-04-02T10:38:13.153Z,997.86
2023-04-02T10:39:13.140Z,997.86
2023-04-02T10:40:13.170Z,997.88
2023-04-02T10:41:13.117Z,997.94
2023-04-02T10:42:13.105Z,997.94
2023-04-02T10:43:13.098Z,997.89
2023-04-02T10:44:20.072Z,997.95
2023-04-02T10:45:15.066Z,997.96
2023-04-02T10:46:13.132Z,997.94
2023-04-02T10:47:13.042Z,998.02
2023-04-02T10:48:13.073Z,997.96
2023-04-02T10:49:13.057Z,998.02
2023-04-02T10:50:13.006Z,998.02
2023-04-02T10:51:12.995Z,998.09
2023-04-02T10:52:12.981Z,998.02
2023-04-02T10:53:12.970Z,998.07
2023-04-02T10:54:12.960Z,998.12
2023-04-02T10:55:12.948Z,998.12
2023-04-02T10:56:12.962Z,998.14
2023-04-02T10:57:12.939Z,998.14
2023-04-02T10:58:12.905Z,998.20
2023-04-02T10:59:12.897Z,998.12
2023-04-02T11:00:13.011Z,998.19
2023-04-02T11:01:12.895Z,998.20
2023-04-02T11:02:12.898Z,998.23
2023-04-02T11:03:12.910Z,998.26
2023-04-02T11:04:14.202Z,998.25
2023-04-02T11:05:12.807Z,998.27
2023-04-02T11:06:12.799Z,998.32
2023-04-02T11:07:14.846Z,998.27
2023-04-02T11:08:12.774Z,998.32
2023-04-02T11:09:12.752Z,998.29
2023-04-02T11:10:12.745Z,998.32
2023-04-02T11:11:12.727Z,998.38
2023-04-02T11:12:12.744Z,998.37
2023-04-02T11:13:12.701Z,998.40
2023-04-02T11:14:12.693Z,998.37
2023-04-02T11:15:12.673Z,998.38
2023-04-02T11:16:12.735Z,998.45
2023-04-02T11:17:12.646Z,998.51
2023-04-02T11:18:12.635Z,998.51
2023-04-02T11:19:12.621Z,998.51
2023-04-02T11:20:12.608Z,998.48
2023-04-02T11:21:12.608Z,998.60
2023-04-02T11:22:12.583Z,998.60
2023-04-02T11:23:12.581Z,998.64
2023-04-02T11:24:12.557Z,998.62
2023-04-02T11:25:12.545Z,998.63
2023-04-02T11:26:12.531Z,998.62
2023-04-02T11:27:12.514Z,998.67
2023-04-02T11:28:12.529Z,998.66
2023-04-02T11:29:12.495Z,998.72
2023-04-02T11:30:12.475Z,998.65
2023-04-02T11:31:12.480Z,998.77
2023-04-02T11:32:12.465Z,998.75
2023-04-02T11:33:12.434Z,998.73
2023-04-02T11:34:12.424Z,998.80
2023-04-02T11:35:12.411Z,998.79
2023-04-02T11:36:12.433Z,998.87
2023-04-02T11:37:12.383Z,998.85
2023-04-02T11:38:12.380Z,998.82
2023-04-02T11:39:17.289Z,998.86
2023-04-02T11:40:12.346Z,998.87
2023-04-02T11:41:12.335Z,998.88
2023-04-02T11:42:12.323Z,998.90
2023-04-02T11:43:12.310Z,998.88
2023-04-02T11:44:12.321Z,998.93
2023-04-02T11:45:12.281Z,998.96
2023-04-02T11:46:12.283Z,998.99
2023-04-02T11:47:12.259Z,998.99
2023-04-02T11:48:12.243Z,999.01
2023-04-02T11:49:12.230Z,999.05
2023-04-02T11:50:12.218Z,999.08
2023-04-02T11:51:12.207Z,999.06
2023-04-02T11:52:12.746Z,999.07
2023-04-02T11:53:12.190Z,999.09
2023-04-02T11:54:12.170Z,999.17
2023-04-02T11:55:12.153Z,999.15
2023-04-02T11:56:12.141Z,999.16
2023-04-02T11:57:12.140Z,999.19
2023-04-02T11:58:12.113Z,999.17
2023-04-02T11:59:12.102Z,999.17
2023-04-02T12:00:12.119Z,999.19
2023-04-02T12:01:12.074Z,999.15
2023-04-02T12:02:12.154Z,999.22
2023-04-02T12:03:12.095Z,999.19
2023-04-02T12:04:12.040Z,999.26
2023-04-02T12:05:12.038Z,999.20
2023-04-02T12:06:12.012Z,999.24
2023-04-02T12:07:11.998Z,999.23
2023-04-02T12:08:11.995Z,999.27
2023-04-02T12:09:11.972Z,999.35
2023-04-02T12:10:11.958Z,999.36
2023-04-02T12:11:11.950Z,999.31
2023-04-02T12:12:11.932Z,999.31
2023-04-02T12:13:11.917Z,999.40
2023-04-02T12:14:11.903Z,999.29
2023-04-02T12:15:11.904Z,999.32
2023-04-02T12:16:11.910Z,999.35
2023-04-02T12:17:12.021Z,999.41
2023-04-02T12:18:11.860Z,999.43
2023-04-02T12:19:11.835Z,999.52
2023-04-02T12:20:11.821Z,999.46
2023-04-02T12:21:11.808Z,999.56
2023-04-02T12:22:11.796Z,999.50
2023-04-02T12:23:11.782Z,999.56
2023-04-02T12:24:11.768Z,999.47
2023-04-02T12:25:11.761Z,999.49
2023-04-02T12:26:11.742Z,999.44
2023-04-02T12:27:11.729Z,999.52
2023-04-02T12:28:11.723Z,999.46
2023-04-02T12:29:11.700Z,999.47
2023-04-02T12:30:11.690Z,999.57
2023-04-02T12:31:11.738Z,999.59
2023-04-02T12:32:11.688Z,999.59